sensor_id;sensor_type;location;lat;lon;timestamp;temperature;humidity
29353;DHT22;16344;50.364;8.944;2022-11-21T00:01:50;22.70;1.00
29353;DHT22;16344;50.364;8.944;2022-11-21T00:04:16;22.70;1.00
29353;DHT22;16344;50.364;8.944;2022-11-21T00:06:41;22.80;1.00
29353;DHT22;16344;50.364;8.944;2022-11-21T00:09:07;22.80;1.00
29353;DHT22;16344;50.364;8.944;2022-11-21T00:11:32;22.90;1.00
29353;DHT22;16344;50.364;8.944;2022-11-21T00:13:58;22.90;1.00
29353;DHT22;16344;50.364;8.944;2022-11-21T00:16:23;22.90;1.00
29353;DHT22;16344;50.364;8.944;2022-11-21T00:18:49;22.80;1.00
29353;DHT22;16344;50.364;8.944;2022-11-21T00:21:16;22.80;1.00
29353;DHT22;16344;50.364;8.944;2022-11-21T00:23:43;22.70;1.00
29353;DHT22;16344;50.364;8.944;2022-11-21T00:26:10;22.60;1.00
29353;DHT22;16344;50.364;8.944;2022-11-21T00:28:37;22.70;1.00
29353;DHT22;16344;50.364;8.944;2022-11-21T00:31:03;22.60;1.00
29353;DHT22;16344;50.364;8.944;2022-11-21T00:33:29;22.70;1.00
29353;DHT22;16344;50.364;8.944;2022-11-21T00:35:55;22.70;1.00
29353;DHT22;16344;50.364;8.944;2022-11-21T00:38:20;22.60;1.00
29353;DHT22;16344;50.364;8.944;2022-11-21T00:40:46;22.70;1.00
29353;DHT22;16344;50.364;8.944;2022-11-21T00:43:11;22.70;1.00
29353;DHT22;16344;50.364;8.944;2022-11-21T00:45:38;22.70;1.00
29353;DHT22;16344;50.364;8.944;2022-11-21T00:48:04;22.80;1.00
29353;DHT22;16344;50.364;8.944;2022-11-21T00:50:29;22.90;1.00
29353;DHT22;16344;50.364;8.944;2022-11-21T00:52:56;22.90;1.00
29353;DHT22;16344;50.364;8.944;2022-11-21T00:55:25;22.80;1.00
29353;DHT22;16344;50.364;8.944;2022-11-21T00:57:50;22.70;1.00
29353;DHT22;16344;50.364;8.944;2022-11-21T01:00:17;22.70;1.00
29353;DHT22;16344;50.364;8.944;2022-11-21T01:02:43;22.60;1.00
29353;DHT22;16344;50.364;8.944;2022-11-21T01:05:09;22.60;1.00
29353;DHT22;16344;50.364;8.944;2022-11-21T01:07:34;22.60;1.00
29353;DHT22;16344;50.364;8.944;2022-11-21T01:10:00;22.50;1.00
29353;DHT22;16344;50.364;8.944;2022-11-21T01:12:26;22.60;1.00
29353;DHT22;16344;50.364;8.944;2022-11-21T01:14:51;22.60;1.00
29353;DHT22;16344;50.364;8.944;2022-11-21T01:17:17;22.60;1.00
29353;DHT22;16344;50.364;8.944;2022-11-21T01:19:43;22.60;1.00
29353;DHT22;16344;50.364;8.944;2022-11-21T01:22:08;22.80;1.00
29353;DHT22;16344;50.364;8.944;2022-11-21T01:24:34;22.80;1.00
29353;DHT22;16344;50.364;8.944;2022-11-21T01:26:59;22.80;1.00
29353;DHT22;16344;50.364;8.944;2022-11-21T01:29:26;22.80;1.00
29353;DHT22;16344;50.364;8.944;2022-11-21T01:31:52;22.80;1.00
29353;DHT22;16344;50.364;8.944;2022-11-21T01:34:17;22.70;1.00
29353;DHT22;16344;50.364;8.944;2022-11-21T01:36:43;22.50;1.00
29353;DHT22;16344;50.364;8.944;2022-11-21T01:39:10;22.50;1.00
29353;DHT22;16344;50.364;8.944;2022-11-21T01:41:38;22.50;1.00
29353;DHT22;16344;50.364;8.944;2022-11-21T01:44:23;22.50;1.00
29353;DHT22;16344;50.364;8.944;2022-11-21T01:46:49;22.40;1.00
29353;DHT22;16344;50.364;8.944;2022-11-21T01:51:49;22.50;1.00
29353;DHT22;16344;50.364;8.944;2022-11-21T01:54:23;22.40;1.00
29353;DHT22;16344;50.364;8.944;2022-11-21T01:56:52;22.60;1.00
29353;DHT22;16344;50.364;8.944;2022-11-21T01:59:26;22.70;1.00
29353;DHT22;16344;50.364;8.944;2022-11-21T02:01:54;22.80;1.00
29353;DHT22;16344;50.364;8.944;2022-11-21T02:04:24;22.80;1.00
29353;DHT22;16344;50.364;8.944;2022-11-21T02:06:50;22.80;1.00
29353;DHT22;16344;50.364;8.944;2022-11-21T02:09:16;22.70;1.00
29353;DHT22;16344;50.364;8.944;2022-11-21T02:11:49;22.60;1.00
29353;DHT22;16344;50.364;8.944;2022-11-21T02:14:15;22.50;1.00
29353;DHT22;16344;50.364;8.944;2022-11-21T02:16:42;22.50;1.00
29353;DHT22;16344;50.364;8.944;2022-11-21T02:19:10;22.50;1.00
29353;DHT22;16344;50.364;8.944;2022-11-21T02:21:52;22.50;1.00
29353;DHT22;16344;50.364;8.944;2022-11-21T02:24:45;22.50;1.00
29353;DHT22;16344;50.364;8.944;2022-11-21T02:27:11;22.40;1.00
29353;DHT22;16344;50.364;8.944;2022-11-21T02:29:38;22.50;1.00
29353;DHT22;16344;50.364;8.944;2022-11-21T02:32:04;22.50;1.00
29353;DHT22;16344;50.364;8.944;2022-11-21T02:34:31;22.60;1.00
29353;DHT22;16344;50.364;8.944;2022-11-21T02:36:57;22.70;1.00
29353;DHT22;16344;50.364;8.944;2022-11-21T02:39:34;22.70;1.00
29353;DHT22;16344;50.364;8.944;2022-11-21T02:42:13;22.70;1.00
29353;DHT22;16344;50.364;8.944;2022-11-21T02:45:03;22.60;1.00
29353;DHT22;16344;50.364;8.944;2022-11-21T02:47:33;22.50;1.00
29353;DHT22;16344;50.364;8.944;2022-11-21T02:50:22;22.50;1.00
29353;DHT22;16344;50.364;8.944;2022-11-21T02:52:50;22.40;1.00
29353;DHT22;16344;50.364;8.944;2022-11-21T02:55:15;22.40;1.00
29353;DHT22;16344;50.364;8.944;2022-11-21T02:57:41;22.40;1.00
29353;DHT22;16344;50.364;8.944;2022-11-21T03:00:08;22.50;1.00
29353;DHT22;16344;50.364;8.944;2022-11-21T03:02:34;22.40;1.00
29353;DHT22;16344;50.364;8.944;2022-11-21T03:05:00;22.40;1.00
29353;DHT22;16344;50.364;8.944;2022-11-21T03:07:26;22.50;1.00
29353;DHT22;16344;50.364;8.944;2022-11-21T03:09:51;22.50;1.00
29353;DHT22;16344;50.364;8.944;2022-11-21T03:12:17;22.60;1.00
29353;DHT22;16344;50.364;8.944;2022-11-21T03:14:42;22.60;1.00
29353;DHT22;16344;50.364;8.944;2022-11-21T03:17:08;22.60;1.00
29353;DHT22;16344;50.364;8.944;2022-11-21T03:19:33;22.60;1.00
29353;DHT22;16344;50.364;8.944;2022-11-21T03:21:59;22.60;1.00
29353;DHT22;16344;50.364;8.944;2022-11-21T03:24:24;22.50;1.00
29353;DHT22;16344;50.364;8.944;2022-11-21T03:26:50;22.40;1.00
29353;DHT22;16344;50.364;8.944;2022-11-21T03:29:15;22.30;1.00
29353;DHT22;16344;50.364;8.944;2022-11-21T03:31:41;22.30;1.00
29353;DHT22;16344;50.364;8.944;2022-11-21T03:34:06;22.30;1.00
29353;DHT22;16344;50.364;8.944;2022-11-21T03:36:33;22.40;1.00
29353;DHT22;16344;50.364;8.944;2022-11-21T03:38:58;22.30;1.00
29353;DHT22;16344;50.364;8.944;2022-11-21T03:41:24;22.30;1.00
29353;DHT22;16344;50.364;8.944;2022-11-21T03:44:02;22.50;1.00
29353;DHT22;16344;50.364;8.944;2022-11-21T03:46:33;22.40;1.00
29353;DHT22;16344;50.364;8.944;2022-11-21T03:48:59;22.50;1.00
29353;DHT22;16344;50.364;8.944;2022-11-21T03:51:25;22.60;1.00
29353;DHT22;16344;50.364;8.944;2022-11-21T03:53:50;22.50;1.00
29353;DHT22;16344;50.364;8.944;2022-11-21T03:56:16;22.60;1.00
29353;DHT22;16344;50.364;8.944;2022-11-21T03:58:42;22.50;1.00
29353;DHT22;16344;50.364;8.944;2022-11-21T04:01:08;22.30;1.00
29353;DHT22;16344;50.364;8.944;2022-11-21T04:03:34;22.30;1.00
29353;DHT22;16344;50.364;8.944;2022-11-21T04:06:00;22.20;1.00
29353;DHT22;16344;50.364;8.944;2022-11-21T04:08:26;22.20;1.00
29353;DHT22;16344;50.364;8.944;2022-11-21T04:10:53;22.20;1.00
29353;DHT22;16344;50.364;8.944;2022-11-21T04:13:19;22.20;1.00
29353;DHT22;16344;50.364;8.944;2022-11-21T04:15:45;22.20;1.00
29353;DHT22;16344;50.364;8.944;2022-11-21T04:18:11;22.30;1.00
29353;DHT22;16344;50.364;8.944;2022-11-21T04:20:38;22.40;1.00
29353;DHT22;16344;50.364;8.944;2022-11-21T04:23:04;22.40;1.00
29353;DHT22;16344;50.364;8.944;2022-11-21T04:25:30;22.50;1.00
29353;DHT22;16344;50.364;8.944;2022-11-21T04:27:57;22.50;1.00
29353;DHT22;16344;50.364;8.944;2022-11-21T04:30:22;22.50;1.00
29353;DHT22;16344;50.364;8.944;2022-11-21T04:32:54;22.50;1.00
29353;DHT22;16344;50.364;8.944;2022-11-21T04:35:21;22.40;1.00
29353;DHT22;16344;50.364;8.944;2022-11-21T04:37:47;22.30;1.00
29353;DHT22;16344;50.364;8.944;2022-11-21T04:40:13;22.30;1.00
29353;DHT22;16344;50.364;8.944;2022-11-21T04:42:43;22.20;1.00
29353;DHT22;16344;50.364;8.944;2022-11-21T04:45:09;22.20;1.00
29353;DHT22;16344;50.364;8.944;2022-11-21T04:47:38;22.20;1.00
29353;DHT22;16344;50.364;8.944;2022-11-21T04:50:05;22.20;1.00
29353;DHT22;16344;50.364;8.944;2022-11-21T04:52:31;22.20;1.00
29353;DHT22;16344;50.364;8.944;2022-11-21T04:54:57;22.20;1.00
29353;DHT22;16344;50.364;8.944;2022-11-21T04:57:23;22.30;1.00
29353;DHT22;16344;50.364;8.944;2022-11-21T04:59:49;22.30;1.00
29353;DHT22;16344;50.364;8.944;2022-11-21T05:02:15;22.20;1.00
29353;DHT22;16344;50.364;8.944;2022-11-21T05:04:40;22.30;1.00
29353;DHT22;16344;50.364;8.944;2022-11-21T05:07:06;22.30;1.00
29353;DHT22;16344;50.364;8.944;2022-11-21T05:09:31;22.30;1.00
29353;DHT22;16344;50.364;8.944;2022-11-21T05:11:57;22.30;1.00
29353;DHT22;16344;50.364;8.944;2022-11-21T05:14:41;22.30;1.00
29353;DHT22;16344;50.364;8.944;2022-11-21T05:17:06;22.10;1.00
29353;DHT22;16344;50.364;8.944;2022-11-21T05:19:32;22.10;1.00
29353;DHT22;16344;50.364;8.944;2022-11-21T05:21:57;22.00;1.00
29353;DHT22;16344;50.364;8.944;2022-11-21T05:24:23;22.00;1.00
29353;DHT22;16344;50.364;8.944;2022-11-21T05:26:49;22.00;1.00
29353;DHT22;16344;50.364;8.944;2022-11-21T05:29:14;22.00;1.00
29353;DHT22;16344;50.364;8.944;2022-11-21T05:31:40;22.10;1.00
29353;DHT22;16344;50.364;8.944;2022-11-21T05:34:05;22.30;1.00
29353;DHT22;16344;50.364;8.944;2022-11-21T05:36:31;22.50;1.00
29353;DHT22;16344;50.364;8.944;2022-11-21T05:38:56;22.50;1.00
29353;DHT22;16344;50.364;8.944;2022-11-21T05:41:22;22.60;1.00
29353;DHT22;16344;50.364;8.944;2022-11-21T05:43:47;22.60;1.00
29353;DHT22;16344;50.364;8.944;2022-11-21T05:46:20;22.40;1.00
29353;DHT22;16344;50.364;8.944;2022-11-21T05:48:46;22.30;1.00
29353;DHT22;16344;50.364;8.944;2022-11-21T05:51:13;22.20;1.00
29353;DHT22;16344;50.364;8.944;2022-11-21T05:53:39;22.20;1.00
29353;DHT22;16344;50.364;8.944;2022-11-21T05:56:07;22.10;1.00
29353;DHT22;16344;50.364;8.944;2022-11-21T05:58:33;22.00;1.00
29353;DHT22;16344;50.364;8.944;2022-11-21T06:00:59;22.00;1.00
29353;DHT22;16344;50.364;8.944;2022-11-21T06:03:26;21.90;1.00
29353;DHT22;16344;50.364;8.944;2022-11-21T06:06:01;21.90;1.00
29353;DHT22;16344;50.364;8.944;2022-11-21T06:08:28;21.90;1.00
29353;DHT22;16344;50.364;8.944;2022-11-21T06:10:54;22.00;1.00
29353;DHT22;16344;50.364;8.944;2022-11-21T06:13:19;22.20;1.00
29353;DHT22;16344;50.364;8.944;2022-11-21T06:15:57;22.30;1.00
29353;DHT22;16344;50.364;8.944;2022-11-21T06:18:23;22.40;1.00
29353;DHT22;16344;50.364;8.944;2022-11-21T06:20:49;22.40;1.00
29353;DHT22;16344;50.364;8.944;2022-11-21T06:23:15;22.40;1.00
29353;DHT22;16344;50.364;8.944;2022-11-21T06:25:41;22.30;1.00
29353;DHT22;16344;50.364;8.944;2022-11-21T06:28:07;22.20;1.00
29353;DHT22;16344;50.364;8.944;2022-11-21T06:30:33;22.00;1.00
29353;DHT22;16344;50.364;8.944;2022-11-21T06:32:58;21.90;1.00
29353;DHT22;16344;50.364;8.944;2022-11-21T06:35:24;21.90;1.00
29353;DHT22;16344;50.364;8.944;2022-11-21T06:37:49;21.90;1.00
29353;DHT22;16344;50.364;8.944;2022-11-21T06:40:15;21.90;1.00
29353;DHT22;16344;50.364;8.944;2022-11-21T06:42:40;21.90;1.00
29353;DHT22;16344;50.364;8.944;2022-11-21T06:45:06;22.00;1.00
29353;DHT22;16344;50.364;8.944;2022-11-21T06:47:35;22.20;1.00
29353;DHT22;16344;50.364;8.944;2022-11-21T06:50:01;22.40;1.00
29353;DHT22;16344;50.364;8.944;2022-11-21T06:52:26;22.50;1.00
29353;DHT22;16344;50.364;8.944;2022-11-21T06:54:52;22.50;1.00
29353;DHT22;16344;50.364;8.944;2022-11-21T06:57:17;22.50;1.00
29353;DHT22;16344;50.364;8.944;2022-11-21T06:59:43;22.50;1.00
29353;DHT22;16344;50.364;8.944;2022-11-21T07:02:12;22.40;1.00
29353;DHT22;16344;50.364;8.944;2022-11-21T07:04:37;22.20;1.00
29353;DHT22;16344;50.364;8.944;2022-11-21T07:07:03;22.10;1.00
29353;DHT22;16344;50.364;8.944;2022-11-21T07:09:28;22.00;1.00
29353;DHT22;16344;50.364;8.944;2022-11-21T07:11:54;22.00;1.00
29353;DHT22;16344;50.364;8.944;2022-11-21T07:14:19;21.90;1.00
29353;DHT22;16344;50.364;8.944;2022-11-21T07:16:45;21.90;1.00
29353;DHT22;16344;50.364;8.944;2022-11-21T07:19:11;21.90;1.00
29353;DHT22;16344;50.364;8.944;2022-11-21T07:21:36;22.00;1.00
29353;DHT22;16344;50.364;8.944;2022-11-21T07:24:02;22.10;1.00
29353;DHT22;16344;50.364;8.944;2022-11-21T07:26:27;22.10;1.00
29353;DHT22;16344;50.364;8.944;2022-11-21T07:28:53;22.30;1.00
29353;DHT22;16344;50.364;8.944;2022-11-21T07:31:18;22.50;1.00
29353;DHT22;16344;50.364;8.944;2022-11-21T07:33:44;22.60;1.00
29353;DHT22;16344;50.364;8.944;2022-11-21T07:36:11;22.60;1.00
29353;DHT22;16344;50.364;8.944;2022-11-21T07:38:37;22.40;1.00
29353;DHT22;16344;50.364;8.944;2022-11-21T07:41:02;22.20;1.00
29353;DHT22;16344;50.364;8.944;2022-11-21T07:43:28;22.10;1.00
29353;DHT22;16344;50.364;8.944;2022-11-21T07:45:54;22.00;1.00
29353;DHT22;16344;50.364;8.944;2022-11-21T07:48:20;22.00;1.00
29353;DHT22;16344;50.364;8.944;2022-11-21T07:50:45;22.00;1.00
29353;DHT22;16344;50.364;8.944;2022-11-21T07:53:11;21.90;1.00
29353;DHT22;16344;50.364;8.944;2022-11-21T07:55:37;21.90;1.00
29353;DHT22;16344;50.364;8.944;2022-11-21T07:58:04;22.00;1.00
29353;DHT22;16344;50.364;8.944;2022-11-21T08:00:30;22.20;1.00
29353;DHT22;16344;50.364;8.944;2022-11-21T08:02:56;22.40;1.00
29353;DHT22;16344;50.364;8.944;2022-11-21T08:05:22;22.50;1.00
29353;DHT22;16344;50.364;8.944;2022-11-21T08:07:48;22.50;1.00
29353;DHT22;16344;50.364;8.944;2022-11-21T08:10:15;22.50;1.00
29353;DHT22;16344;50.364;8.944;2022-11-21T08:12:41;22.50;1.00
29353;DHT22;16344;50.364;8.944;2022-11-21T08:15:07;22.50;1.00
29353;DHT22;16344;50.364;8.944;2022-11-21T08:17:33;22.30;1.00
29353;DHT22;16344;50.364;8.944;2022-11-21T08:19:58;22.20;1.00
29353;DHT22;16344;50.364;8.944;2022-11-21T08:22:25;22.10;1.00
29353;DHT22;16344;50.364;8.944;2022-11-21T08:24:50;22.00;1.00
29353;DHT22;16344;50.364;8.944;2022-11-21T08:27:18;22.00;1.00
29353;DHT22;16344;50.364;8.944;2022-11-21T08:29:45;21.90;1.00
29353;DHT22;16344;50.364;8.944;2022-11-21T08:32:11;21.90;1.00
29353;DHT22;16344;50.364;8.944;2022-11-21T08:34:36;22.00;1.00
29353;DHT22;16344;50.364;8.944;2022-11-21T08:37:02;22.00;1.00
29353;DHT22;16344;50.364;8.944;2022-11-21T08:39:28;22.20;1.00
29353;DHT22;16344;50.364;8.944;2022-11-21T08:41:55;22.40;1.00
29353;DHT22;16344;50.364;8.944;2022-11-21T08:44:31;22.40;1.00
29353;DHT22;16344;50.364;8.944;2022-11-21T08:46:57;22.40;1.00
29353;DHT22;16344;50.364;8.944;2022-11-21T08:49:23;22.50;1.00
29353;DHT22;16344;50.364;8.944;2022-11-21T08:51:49;22.40;1.00
29353;DHT22;16344;50.364;8.944;2022-11-21T08:54:18;22.30;1.00
29353;DHT22;16344;50.364;8.944;2022-11-21T08:56:44;22.10;1.00
29353;DHT22;16344;50.364;8.944;2022-11-21T08:59:10;22.00;1.00
29353;DHT22;16344;50.364;8.944;2022-11-21T09:01:36;22.00;1.00
29353;DHT22;16344;50.364;8.944;2022-11-21T09:04:02;22.00;1.00
29353;DHT22;16344;50.364;8.944;2022-11-21T09:06:27;21.90;1.00
29353;DHT22;16344;50.364;8.944;2022-11-21T09:08:53;21.90;1.00
29353;DHT22;16344;50.364;8.944;2022-11-21T09:11:18;22.00;1.00
29353;DHT22;16344;50.364;8.944;2022-11-21T09:13:44;22.00;1.00
29353;DHT22;16344;50.364;8.944;2022-11-21T09:16:29;22.30;1.00
29353;DHT22;16344;50.364;8.944;2022-11-21T09:19:13;22.30;1.00
29353;DHT22;16344;50.364;8.944;2022-11-21T09:21:39;22.40;1.00
29353;DHT22;16344;50.364;8.944;2022-11-21T09:24:05;22.40;1.00
29353;DHT22;16344;50.364;8.944;2022-11-21T09:26:30;22.40;1.00
29353;DHT22;16344;50.364;8.944;2022-11-21T09:28:56;22.40;1.00
29353;DHT22;16344;50.364;8.944;2022-11-21T09:31:21;22.30;1.00
29353;DHT22;16344;50.364;8.944;2022-11-21T09:33:47;22.20;1.00
29353;DHT22;16344;50.364;8.944;2022-11-21T09:36:12;22.20;1.00
29353;DHT22;16344;50.364;8.944;2022-11-21T09:38:38;22.20;1.00
29353;DHT22;16344;50.364;8.944;2022-11-21T09:44:45;22.00;1.00
29353;DHT22;16344;50.364;8.944;2022-11-21T09:47:43;22.00;1.00
29353;DHT22;16344;50.364;8.944;2022-11-21T09:58:38;22.30;1.00
29353;DHT22;16344;50.364;8.944;2022-11-21T10:01:11;22.30;1.00
29353;DHT22;16344;50.364;8.944;2022-11-21T10:03:50;22.30;1.00
29353;DHT22;16344;50.364;8.944;2022-11-21T10:06:23;22.30;1.00
29353;DHT22;16344;50.364;8.944;2022-11-21T10:11:42;22.00;1.00
29353;DHT22;16344;50.364;8.944;2022-11-21T10:14:41;22.00;1.00
29353;DHT22;16344;50.364;8.944;2022-11-21T10:23:19;22.30;1.00
29353;DHT22;16344;50.364;8.944;2022-11-21T10:25:22;22.30;1.00
29353;DHT22;16344;50.364;8.944;2022-11-21T10:28:15;22.30;1.00
29353;DHT22;16344;50.364;8.944;2022-11-21T10:30:43;22.30;1.00
29353;DHT22;16344;50.364;8.944;2022-11-21T10:33:33;22.30;1.00
29353;DHT22;16344;50.364;8.944;2022-11-21T10:36:06;22.10;1.00
29353;DHT22;16344;50.364;8.944;2022-11-21T10:38:37;22.10;1.00
29353;DHT22;16344;50.364;8.944;2022-11-21T10:41:33;22.00;1.00
29353;DHT22;16344;50.364;8.944;2022-11-21T10:44:06;22.00;1.00
29353;DHT22;16344;50.364;8.944;2022-11-21T10:46:56;22.00;1.00
29353;DHT22;16344;50.364;8.944;2022-11-21T10:49:24;22.00;1.00
29353;DHT22;16344;50.364;8.944;2022-11-21T10:51:56;22.10;1.00
29353;DHT22;16344;50.364;8.944;2022-11-21T10:54:24;22.00;1.00
29353;DHT22;16344;50.364;8.944;2022-11-21T10:57:13;21.90;1.00
29353;DHT22;16344;50.364;8.944;2022-11-21T10:59:40;22.00;1.00
29353;DHT22;16344;50.364;8.944;2022-11-21T11:04:38;22.20;1.00
29353;DHT22;16344;50.364;8.944;2022-11-21T11:09:45;22.30;1.00
29353;DHT22;16344;50.364;8.944;2022-11-21T11:12:23;22.30;1.00
29353;DHT22;16344;50.364;8.944;2022-11-21T11:14:52;22.30;1.00
29353;DHT22;16344;50.364;8.944;2022-11-21T11:17:29;22.40;1.00
29353;DHT22;16344;50.364;8.944;2022-11-21T11:20:00;22.30;1.00
29353;DHT22;16344;50.364;8.944;2022-11-21T11:22:28;22.30;1.00
29353;DHT22;16344;50.364;8.944;2022-11-21T11:24:54;22.30;1.00
29353;DHT22;16344;50.364;8.944;2022-11-21T11:27:26;22.20;1.00
29353;DHT22;16344;50.364;8.944;2022-11-21T11:29:52;22.20;1.00
29353;DHT22;16344;50.364;8.944;2022-11-21T11:32:18;22.00;1.00
29353;DHT22;16344;50.364;8.944;2022-11-21T11:34:59;22.00;1.00
29353;DHT22;16344;50.364;8.944;2022-11-21T11:37:41;21.90;1.00
29353;DHT22;16344;50.364;8.944;2022-11-21T11:48:42;22.00;1.00
29353;DHT22;16344;50.364;8.944;2022-11-21T11:51:21;22.00;1.00
29353;DHT22;16344;50.364;8.944;2022-11-21T11:53:51;22.00;1.00
29353;DHT22;16344;50.364;8.944;2022-11-21T11:56:20;22.00;1.00
29353;DHT22;16344;50.364;8.944;2022-11-21T12:01:52;22.00;1.00
29353;DHT22;16344;50.364;8.944;2022-11-21T12:04:21;22.00;1.00
29353;DHT22;16344;50.364;8.944;2022-11-21T12:06:59;22.10;1.00
29353;DHT22;16344;50.364;8.944;2022-11-21T12:12:25;22.00;1.00
29353;DHT22;16344;50.364;8.944;2022-11-21T12:15:16;21.90;1.00
29353;DHT22;16344;50.364;8.944;2022-11-21T12:18:29;21.80;1.00
29353;DHT22;16344;50.364;8.944;2022-11-21T12:21:16;21.90;1.00
29353;DHT22;16344;50.364;8.944;2022-11-21T12:24:06;21.90;1.00
29353;DHT22;16344;50.364;8.944;2022-11-21T12:26:44;21.90;1.00
29353;DHT22;16344;50.364;8.944;2022-11-21T12:29:23;21.90;1.00
29353;DHT22;16344;50.364;8.944;2022-11-21T12:37:20;21.90;1.00
29353;DHT22;16344;50.364;8.944;2022-11-21T12:48:39;22.00;1.00
29353;DHT22;16344;50.364;8.944;2022-11-21T12:57:28;21.90;1.00
29353;DHT22;16344;50.364;8.944;2022-11-21T13:03:08;21.80;1.00
29353;DHT22;16344;50.364;8.944;2022-11-21T13:05:41;21.80;1.00
29353;DHT22;16344;50.364;8.944;2022-11-21T13:08:13;21.90;1.00
29353;DHT22;16344;50.364;8.944;2022-11-21T13:10:47;21.90;1.00
29353;DHT22;16344;50.364;8.944;2022-11-21T13:13:33;21.90;1.00
29353;DHT22;16344;50.364;8.944;2022-11-21T13:16:06;22.00;1.00
29353;DHT22;16344;50.364;8.944;2022-11-21T13:18:40;22.00;1.00
29353;DHT22;16344;50.364;8.944;2022-11-21T13:27:28;21.90;1.00
29353;DHT22;16344;50.364;8.944;2022-11-21T13:35:02;21.70;1.00
29353;DHT22;16344;50.364;8.944;2022-11-21T13:45:44;21.50;1.00
29353;DHT22;16344;50.364;8.944;2022-11-21T13:51:25;21.60;1.00
29353;DHT22;16344;50.364;8.944;2022-11-21T14:00:01;21.70;1.00
29353;DHT22;16344;50.364;8.944;2022-11-21T14:07:52;21.70;1.00
29353;DHT22;16344;50.364;8.944;2022-11-21T14:12:55;21.60;1.00
29353;DHT22;16344;50.364;8.944;2022-11-21T14:15:40;21.60;1.00
29353;DHT22;16344;50.364;8.944;2022-11-21T14:18:19;21.60;1.00
29353;DHT22;16344;50.364;8.944;2022-11-21T14:20:52;21.50;1.00
29353;DHT22;16344;50.364;8.944;2022-11-21T14:23:20;21.50;1.00
29353;DHT22;16344;50.364;8.944;2022-11-21T14:25:54;21.60;1.00
29353;DHT22;16344;50.364;8.944;2022-11-21T14:28:32;21.70;1.00
29353;DHT22;16344;50.364;8.944;2022-11-21T14:31:09;21.90;1.00
29353;DHT22;16344;50.364;8.944;2022-11-21T14:36:11;22.10;1.00
29353;DHT22;16344;50.364;8.944;2022-11-21T14:38:57;22.10;1.00
29353;DHT22;16344;50.364;8.944;2022-11-21T14:41:25;22.20;1.00
29353;DHT22;16344;50.364;8.944;2022-11-21T14:46:26;21.80;1.00
29353;DHT22;16344;50.364;8.944;2022-11-21T14:48:53;21.70;1.00
29353;DHT22;16344;50.364;8.944;2022-11-21T14:51:23;21.60;1.00
29353;DHT22;16344;50.364;8.944;2022-11-21T14:53:51;21.60;1.00
29353;DHT22;16344;50.364;8.944;2022-11-21T14:56:31;21.60;1.00
29353;DHT22;16344;50.364;8.944;2022-11-21T14:59:00;21.50;1.00
29353;DHT22;16344;50.364;8.944;2022-11-21T15:01:29;21.60;1.00
29353;DHT22;16344;50.364;8.944;2022-11-21T15:04:06;21.60;1.00
29353;DHT22;16344;50.364;8.944;2022-11-21T15:06:41;21.60;1.00
29353;DHT22;16344;50.364;8.944;2022-11-21T15:09:11;21.70;1.00
29353;DHT22;16344;50.364;8.944;2022-11-21T15:11:48;21.90;1.00
29353;DHT22;16344;50.364;8.944;2022-11-21T15:16:54;21.90;1.00
29353;DHT22;16344;50.364;8.944;2022-11-21T15:19:23;21.90;1.00
29353;DHT22;16344;50.364;8.944;2022-11-21T15:21:50;21.70;1.00
29353;DHT22;16344;50.364;8.944;2022-11-21T15:24:41;21.70;1.00
29353;DHT22;16344;50.364;8.944;2022-11-21T15:27:34;21.60;1.00
29353;DHT22;16344;50.364;8.944;2022-11-21T15:33:14;21.60;1.00
29353;DHT22;16344;50.364;8.944;2022-11-21T15:48:43;21.80;1.00
29353;DHT22;16344;50.364;8.944;2022-11-21T15:51:09;21.70;1.00
29353;DHT22;16344;50.364;8.944;2022-11-21T15:53:36;21.80;1.00
29353;DHT22;16344;50.364;8.944;2022-11-21T15:56:01;21.70;1.00
29353;DHT22;16344;50.364;8.944;2022-11-21T15:58:27;21.80;1.00
29353;DHT22;16344;50.364;8.944;2022-11-21T16:00:53;21.90;1.00
29353;DHT22;16344;50.364;8.944;2022-11-21T16:03:18;21.80;1.00
29353;DHT22;16344;50.364;8.944;2022-11-21T16:05:44;21.60;1.00
29353;DHT22;16344;50.364;8.944;2022-11-21T16:08:09;21.60;1.00
29353;DHT22;16344;50.364;8.944;2022-11-21T16:10:35;21.50;1.00
29353;DHT22;16344;50.364;8.944;2022-11-21T16:13:01;21.50;1.00
29353;DHT22;16344;50.364;8.944;2022-11-21T16:15:26;21.50;1.00
29353;DHT22;16344;50.364;8.944;2022-11-21T16:17:52;21.40;1.00
29353;DHT22;16344;50.364;8.944;2022-11-21T16:20:17;21.60;1.00
29353;DHT22;16344;50.364;8.944;2022-11-21T16:22:43;21.70;1.00
29353;DHT22;16344;50.364;8.944;2022-11-21T16:25:09;21.90;1.00
29353;DHT22;16344;50.364;8.944;2022-11-21T16:27:35;21.80;1.00
29353;DHT22;16344;50.364;8.944;2022-11-21T16:30:00;21.90;1.00
29353;DHT22;16344;50.364;8.944;2022-11-21T16:32:26;21.80;1.00
29353;DHT22;16344;50.364;8.944;2022-11-21T16:34:52;22.00;1.00
29353;DHT22;16344;50.364;8.944;2022-11-21T16:37:19;22.00;1.00
29353;DHT22;16344;50.364;8.944;2022-11-21T16:39:44;21.90;1.00
29353;DHT22;16344;50.364;8.944;2022-11-21T16:42:16;21.80;1.00
29353;DHT22;16344;50.364;8.944;2022-11-21T16:44:43;21.70;1.00
29353;DHT22;16344;50.364;8.944;2022-11-21T16:47:08;21.70;1.00
29353;DHT22;16344;50.364;8.944;2022-11-21T16:49:35;21.60;1.00
29353;DHT22;16344;50.364;8.944;2022-11-21T16:52:01;21.60;1.00
29353;DHT22;16344;50.364;8.944;2022-11-21T16:54:26;21.60;1.00
29353;DHT22;16344;50.364;8.944;2022-11-21T16:56:52;21.60;1.00
29353;DHT22;16344;50.364;8.944;2022-11-21T16:59:18;21.70;1.00
29353;DHT22;16344;50.364;8.944;2022-11-21T17:01:43;21.80;1.00
29353;DHT22;16344;50.364;8.944;2022-11-21T17:04:09;21.70;1.00
29353;DHT22;16344;50.364;8.944;2022-11-21T17:06:35;21.80;1.00
29353;DHT22;16344;50.364;8.944;2022-11-21T17:09:01;21.80;1.00
29353;DHT22;16344;50.364;8.944;2022-11-21T17:11:28;21.80;1.00
29353;DHT22;16344;50.364;8.944;2022-11-21T17:13:59;21.80;1.00
29353;DHT22;16344;50.364;8.944;2022-11-21T17:16:25;21.80;1.00
29353;DHT22;16344;50.364;8.944;2022-11-21T17:18:58;21.80;1.00
29353;DHT22;16344;50.364;8.944;2022-11-21T17:21:25;21.70;1.00
29353;DHT22;16344;50.364;8.944;2022-11-21T17:23:51;21.70;1.00
29353;DHT22;16344;50.364;8.944;2022-11-21T17:26:19;21.60;1.00
29353;DHT22;16344;50.364;8.944;2022-11-21T17:28:52;21.70;1.00
29353;DHT22;16344;50.364;8.944;2022-11-21T17:31:18;21.70;1.00
29353;DHT22;16344;50.364;8.944;2022-11-21T17:33:44;21.80;1.00
29353;DHT22;16344;50.364;8.944;2022-11-21T17:36:14;21.70;1.00
29353;DHT22;16344;50.364;8.944;2022-11-21T17:38:40;21.70;1.00
29353;DHT22;16344;50.364;8.944;2022-11-21T17:41:10;21.80;1.00
29353;DHT22;16344;50.364;8.944;2022-11-21T17:43:36;21.80;1.00
29353;DHT22;16344;50.364;8.944;2022-11-21T17:46:04;21.80;1.00
29353;DHT22;16344;50.364;8.944;2022-11-21T17:48:34;21.80;1.00
29353;DHT22;16344;50.364;8.944;2022-11-21T17:51:05;21.80;1.00
29353;DHT22;16344;50.364;8.944;2022-11-21T17:53:36;21.80;1.00
29353;DHT22;16344;50.364;8.944;2022-11-21T17:56:04;21.90;1.00
29353;DHT22;16344;50.364;8.944;2022-11-21T17:58:30;21.90;1.00
29353;DHT22;16344;50.364;8.944;2022-11-21T18:00:57;21.80;1.00
29353;DHT22;16344;50.364;8.944;2022-11-21T18:03:24;21.80;1.00